sensor_id;sensor_type;location;lat;lon;timestamp;pressure;altitude;pressure_sealevel;temperature;humidity
72465;BME280;60471;52.150;4.508;2024-03-25T00:00:46;100527.91;;;8.27;100.00
72465;BME280;60471;52.150;4.508;2024-03-25T00:03:12;100527.38;;;8.19;100.00
72465;BME280;60471;52.150;4.508;2024-03-25T00:05:38;100526.53;;;8.19;100.00
72465;BME280;60471;52.150;4.508;2024-03-25T00:08:04;100529.09;;;8.20;100.00
72465;BME280;60471;52.150;4.508;2024-03-25T00:10:31;100529.16;;;8.19;100.00
72465;BME280;60471;52.150;4.508;2024-03-25T00:12:57;100527.31;;;8.21;100.00
72465;BME280;60471;52.150;4.508;2024-03-25T00:15:23;100509.97;;;8.17;100.00
72465;BME280;60471;52.150;4.508;2024-03-25T00:17:50;100503.28;;;8.09;100.00
72465;BME280;60471;52.150;4.508;2024-03-25T00:20:16;100504.06;;;8.11;100.00
72465;BME280;60471;52.150;4.508;2024-03-25T00:22:42;100507.59;;;8.10;100.00
72465;BME280;60471;52.150;4.508;2024-03-25T00:25:08;100508.22;;;8.17;100.00
72465;BME280;60471;52.150;4.508;2024-03-25T00:27:35;100503.66;;;8.21;100.00
72465;BME280;60471;52.150;4.508;2024-03-25T00:30:01;100511.69;;;8.18;100.00
72465;BME280;60471;52.150;4.508;2024-03-25T00:32:28;100512.53;;;8.18;100.00
72465;BME280;60471;52.150;4.508;2024-03-25T00:34:54;100508.75;;;8.25;100.00
72465;BME280;60471;52.150;4.508;2024-03-25T00:37:21;100512.69;;;8.15;100.00
72465;BME280;60471;52.150;4.508;2024-03-25T00:39:47;100511.16;;;8.30;100.00
72465;BME280;60471;52.150;4.508;2024-03-25T00:42:14;100520.03;;;8.27;100.00
72465;BME280;60471;52.150;4.508;2024-03-25T00:44:40;100517.41;;;8.27;100.00
72465;BME280;60471;52.150;4.508;2024-03-25T00:47:06;100521.00;;;8.25;100.00
72465;BME280;60471;52.150;4.508;2024-03-25T00:49:32;100518.88;;;8.14;100.00
72465;BME280;60471;52.150;4.508;2024-03-25T00:51:58;100519.50;;;7.99;100.00
72465;BME280;60471;52.150;4.508;2024-03-25T00:54:25;100513.94;;;8.06;100.00
72465;BME280;60471;52.150;4.508;2024-03-25T00:56:51;100513.53;;;8.16;100.00
72465;BME280;60471;52.150;4.508;2024-03-25T00:59:17;100521.28;;;7.98;100.00
72465;BME280;60471;52.150;4.508;2024-03-25T01:01:43;100518.78;;;7.95;100.00
72465;BME280;60471;52.150;4.508;2024-03-25T01:04:10;100521.66;;;7.89;100.00
72465;BME280;60471;52.150;4.508;2024-03-25T01:06:36;100516.59;;;7.84;100.00
72465;BME280;60471;52.150;4.508;2024-03-25T01:09:03;100524.16;;;7.92;100.00
72465;BME280;60471;52.150;4.508;2024-03-25T01:11:30;100525.41;;;7.83;100.00
72465;BME280;60471;52.150;4.508;2024-03-25T01:13:56;100522.88;;;7.80;100.00
72465;BME280;60471;52.150;4.508;2024-03-25T01:16:23;100529.06;;;7.79;100.00
72465;BME280;60471;52.150;4.508;2024-03-25T01:18:49;100533.84;;;7.70;100.00
72465;BME280;60471;52.150;4.508;2024-03-25T01:21:15;100531.72;;;7.57;100.00
72465;BME280;60471;52.150;4.508;2024-03-25T01:23:41;100531.59;;;7.61;100.00
72465;BME280;60471;52.150;4.508;2024-03-25T01:26:07;100533.31;;;7.62;100.00
72465;BME280;60471;52.150;4.508;2024-03-25T01:28:34;100537.31;;;7.70;100.00
72465;BME280;60471;52.150;4.508;2024-03-25T01:31:00;100530.25;;;7.72;100.00
72465;BME280;60471;52.150;4.508;2024-03-25T01:33:27;100534.88;;;7.66;100.00
72465;BME280;60471;52.150;4.508;2024-03-25T01:35:53;100528.84;;;7.64;100.00
72465;BME280;60471;52.150;4.508;2024-03-25T01:38:21;100527.25;;;7.60;100.00
72465;BME280;60471;52.150;4.508;2024-03-25T01:40:48;100519.56;;;7.55;100.00
72465;BME280;60471;52.150;4.508;2024-03-25T01:43:14;100519.44;;;7.58;100.00
72465;BME280;60471;52.150;4.508;2024-03-25T01:45:41;100523.13;;;7.54;100.00
72465;BME280;60471;52.150;4.508;2024-03-25T01:48:08;100518.34;;;7.64;100.00
72465;BME280;60471;52.150;4.508;2024-03-25T01:50:40;100526.28;;;7.62;100.00
72465;BME280;60471;52.150;4.508;2024-03-25T01:53:12;100523.13;;;7.54;100.00
72465;BME280;60471;52.150;4.508;2024-03-25T01:55:41;100517.25;;;7.47;100.00
72465;BME280;60471;52.150;4.508;2024-03-25T01:58:08;100522.56;;;7.46;100.00
72465;BME280;60471;52.150;4.508;2024-03-25T02:00:35;100522.13;;;7.35;100.00
72465;BME280;60471;52.150;4.508;2024-03-25T02:03:01;100530.13;;;7.32;100.00
72465;BME280;60471;52.150;4.508;2024-03-25T02:05:28;100531.34;;;7.23;100.00
72465;BME280;60471;52.150;4.508;2024-03-25T02:07:55;100532.81;;;7.30;100.00
72465;BME280;60471;52.150;4.508;2024-03-25T02:10:22;100532.88;;;7.29;100.00
72465;BME280;60471;52.150;4.508;2024-03-25T02:12:49;100524.81;;;7.33;100.00
72465;BME280;60471;52.150;4.508;2024-03-25T02:15:16;100527.94;;;7.43;100.00
72465;BME280;60471;52.150;4.508;2024-03-25T02:17:43;100528.84;;;7.42;100.00
72465;BME280;60471;52.150;4.508;2024-03-25T02:20:10;100522.81;;;7.40;100.00
72465;BME280;60471;52.150;4.508;2024-03-25T02:22:38;100520.13;;;7.41;100.00
72465;BME280;60471;52.150;4.508;2024-03-25T02:25:07;100521.63;;;7.47;100.00
72465;BME280;60471;52.150;4.508;2024-03-25T02:27:36;100516.03;;;7.56;100.00
72465;BME280;60471;52.150;4.508;2024-03-25T02:32:31;100503.25;;;7.47;100.00
72465;BME280;60471;52.150;4.508;2024-03-25T02:34:58;100498.34;;;7.39;100.00
72465;BME280;60471;52.150;4.508;2024-03-25T02:37:25;100498.22;;;7.42;100.00
72465;BME280;60471;52.150;4.508;2024-03-25T02:39:58;100490.03;;;7.50;100.00
72465;BME280;60471;52.150;4.508;2024-03-25T02:42:25;100488.75;;;7.38;100.00
72465;BME280;60471;52.150;4.508;2024-03-25T02:44:56;100486.78;;;7.21;100.00
72465;BME280;60471;52.150;4.508;2024-03-25T02:47:22;100493.09;;;7.17;100.00
72465;BME280;60471;52.150;4.508;2024-03-25T02:49:49;100490.63;;;7.13;100.00
72465;BME280;60471;52.150;4.508;2024-03-25T02:52:15;100494.72;;;7.20;100.00
72465;BME280;60471;52.150;4.508;2024-03-25T02:54:41;100485.03;;;7.22;100.00
72465;BME280;60471;52.150;4.508;2024-03-25T02:57:08;100480.41;;;7.07;100.00
72465;BME280;60471;52.150;4.508;2024-03-25T02:59:34;100486.38;;;7.10;100.00
72465;BME280;60471;52.150;4.508;2024-03-25T03:02:00;100482.03;;;7.09;100.00
72465;BME280;60471;52.150;4.508;2024-03-25T03:04:26;100481.97;;;7.11;100.00
72465;BME280;60471;52.150;4.508;2024-03-25T03:06:53;100484.34;;;6.95;100.00
72465;BME280;60471;52.150;4.508;2024-03-25T03:09:19;100474.72;;;6.95;100.00
72465;BME280;60471;52.150;4.508;2024-03-25T03:11:45;100475.66;;;6.93;100.00
72465;BME280;60471;52.150;4.508;2024-03-25T03:14:11;100472.09;;;6.95;100.00
72465;BME280;60471;52.150;4.508;2024-03-25T03:16:37;100476.72;;;6.89;100.00
72465;BME280;60471;52.150;4.508;2024-03-25T03:19:04;100477.44;;;6.92;100.00
72465;BME280;60471;52.150;4.508;2024-03-25T03:21:30;100472.50;;;6.85;100.00
72465;BME280;60471;52.150;4.508;2024-03-25T03:23:57;100477.78;;;6.83;100.00
72465;BME280;60471;52.150;4.508;2024-03-25T03:26:23;100470.16;;;6.77;100.00
72465;BME280;60471;52.150;4.508;2024-03-25T03:28:53;100464.84;;;6.79;100.00
72465;BME280;60471;52.150;4.508;2024-03-25T03:31:20;100466.59;;;6.56;100.00
72465;BME280;60471;52.150;4.508;2024-03-25T03:33:49;100469.00;;;6.62;100.00
72465;BME280;60471;52.150;4.508;2024-03-25T03:36:21;100467.75;;;6.71;100.00
72465;BME280;60471;52.150;4.508;2024-03-25T03:38:52;100470.28;;;6.74;100.00
72465;BME280;60471;52.150;4.508;2024-03-25T03:41:18;100462.38;;;6.76;100.00
72465;BME280;60471;52.150;4.508;2024-03-25T03:43:44;100464.63;;;6.85;100.00
72465;BME280;60471;52.150;4.508;2024-03-25T03:46:11;100455.94;;;6.83;100.00
72465;BME280;60471;52.150;4.508;2024-03-25T03:48:37;100453.97;;;6.89;100.00
72465;BME280;60471;52.150;4.508;2024-03-25T03:51:05;100457.78;;;6.81;100.00
72465;BME280;60471;52.150;4.508;2024-03-25T03:53:33;100456.56;;;6.89;100.00
72465;BME280;60471;52.150;4.508;2024-03-25T03:56:02;100462.81;;;6.87;100.00
72465;BME280;60471;52.150;4.508;2024-03-25T03:58:33;100464.56;;;6.86;100.00
72465;BME280;60471;52.150;4.508;2024-03-25T04:01:00;100458.06;;;6.96;100.00
72465;BME280;60471;52.150;4.508;2024-03-25T04:03:27;100456.34;;;6.95;100.00
72465;BME280;60471;52.150;4.508;2024-03-25T04:05:53;100466.22;;;6.89;100.00
72465;BME280;60471;52.150;4.508;2024-03-25T04:08:19;100458.47;;;6.86;100.00
72465;BME280;60471;52.150;4.508;2024-03-25T04:10:45;100454.88;;;6.88;100.00
72465;BME280;60471;52.150;4.508;2024-03-25T04:13:12;100452.25;;;6.88;100.00
72465;BME280;60471;52.150;4.508;2024-03-25T04:15:39;100460.19;;;6.87;100.00
72465;BME280;60471;52.150;4.508;2024-03-25T04:18:08;100460.34;;;6.82;100.00
72465;BME280;60471;52.150;4.508;2024-03-25T04:20:41;100457.22;;;6.73;100.00
72465;BME280;60471;52.150;4.508;2024-03-25T04:23:07;100452.94;;;6.70;100.00
72465;BME280;60471;52.150;4.508;2024-03-25T04:25:34;100448.09;;;6.59;100.00
72465;BME280;60471;52.150;4.508;2024-03-25T04:28:04;100454.00;;;6.66;100.00
72465;BME280;60471;52.150;4.508;2024-03-25T04:30:32;100449.47;;;6.69;100.00
72465;BME280;60471;52.150;4.508;2024-03-25T04:33:00;100449.75;;;6.62;100.00
72465;BME280;60471;52.150;4.508;2024-03-25T04:35:26;100457.94;;;6.54;100.00
72465;BME280;60471;52.150;4.508;2024-03-25T04:37:53;100458.72;;;6.56;100.00
72465;BME280;60471;52.150;4.508;2024-03-25T04:40:21;100450.06;;;6.54;100.00
72465;BME280;60471;52.150;4.508;2024-03-25T04:42:48;100453.59;;;6.53;100.00
72465;BME280;60471;52.150;4.508;2024-03-25T04:45:15;100452.91;;;6.48;100.00
72465;BME280;60471;52.150;4.508;2024-03-25T04:47:41;100453.16;;;6.42;100.00
72465;BME280;60471;52.150;4.508;2024-03-25T04:50:08;100456.03;;;6.34;100.00
72465;BME280;60471;52.150;4.508;2024-03-25T04:52:35;100457.94;;;6.29;100.00
72465;BME280;60471;52.150;4.508;2024-03-25T04:55:01;100453.94;;;6.21;100.00
72465;BME280;60471;52.150;4.508;2024-03-25T04:57:28;100461.00;;;6.19;100.00
72465;BME280;60471;52.150;4.508;2024-03-25T04:59:54;100468.41;;;6.06;100.00
72465;BME280;60471;52.150;4.508;2024-03-25T05:02:20;100463.09;;;6.09;100.00
72465;BME280;60471;52.150;4.508;2024-03-25T05:04:46;100469.31;;;6.05;100.00
72465;BME280;60471;52.150;4.508;2024-03-25T05:07:12;100464.94;;;6.05;100.00
72465;BME280;60471;52.150;4.508;2024-03-25T05:09:39;100466.88;;;6.00;100.00
72465;BME280;60471;52.150;4.508;2024-03-25T05:12:06;100474.88;;;5.96;100.00
72465;BME280;60471;52.150;4.508;2024-03-25T05:14:32;100464.38;;;5.97;100.00
72465;BME280;60471;52.150;4.508;2024-03-25T05:16:58;100474.19;;;5.91;100.00
72465;BME280;60471;52.150;4.508;2024-03-25T05:19:24;100463.59;;;5.94;100.00
72465;BME280;60471;52.150;4.508;2024-03-25T05:21:51;100468.97;;;5.89;100.00
72465;BME280;60471;52.150;4.508;2024-03-25T05:24:17;100467.31;;;5.87;100.00
72465;BME280;60471;52.150;4.508;2024-03-25T05:26:43;100466.47;;;5.86;100.00
72465;BME280;60471;52.150;4.508;2024-03-25T05:29:09;100461.25;;;5.86;100.00
72465;BME280;60471;52.150;4.508;2024-03-25T05:31:35;100460.34;;;5.86;100.00
72465;BME280;60471;52.150;4.508;2024-03-25T05:34:02;100455.81;;;5.92;100.00
72465;BME280;60471;52.150;4.508;2024-03-25T05:36:34;100452.13;;;5.98;100.00
72465;BME280;60471;52.150;4.508;2024-03-25T05:39:00;100456.50;;;5.97;100.00
72465;BME280;60471;52.150;4.508;2024-03-25T05:41:26;100458.22;;;5.98;100.00
72465;BME280;60471;52.150;4.508;2024-03-25T05:43:52;100451.97;;;6.02;100.00
72465;BME280;60471;52.150;4.508;2024-03-25T05:46:19;100452.13;;;5.98;100.00
72465;BME280;60471;52.150;4.508;2024-03-25T05:48:45;100448.69;;;5.96;100.00
72465;BME280;60471;52.150;4.508;2024-03-25T05:51:11;100448.53;;;6.00;100.00
72465;BME280;60471;52.150;4.508;2024-03-25T05:53:37;100448.53;;;6.00;100.00
72465;BME280;60471;52.150;4.508;2024-03-25T05:56:04;100449.06;;;6.10;100.00
72465;BME280;60471;52.150;4.508;2024-03-25T05:58:30;100447.13;;;6.15;100.00
72465;BME280;60471;52.150;4.508;2024-03-25T06:00:57;100445.31;;;6.17;100.00
72465;BME280;60471;52.150;4.508;2024-03-25T06:03:23;100443.22;;;6.27;100.00
72465;BME280;60471;52.150;4.508;2024-03-25T06:05:49;100448.31;;;6.31;100.00
72465;BME280;60471;52.150;4.508;2024-03-25T06:08:15;100439.28;;;6.38;100.00
72465;BME280;60471;52.150;4.508;2024-03-25T06:10:46;100434.88;;;6.41;100.00
72465;BME280;60471;52.150;4.508;2024-03-25T06:13:13;100444.19;;;6.48;100.00
72465;BME280;60471;52.150;4.508;2024-03-25T06:15:39;100434.69;;;6.45;100.00
72465;BME280;60471;52.150;4.508;2024-03-25T06:18:05;100430.09;;;6.50;100.00
72465;BME280;60471;52.150;4.508;2024-03-25T06:20:31;100435.25;;;6.53;100.00
72465;BME280;60471;52.150;4.508;2024-03-25T06:22:57;100424.72;;;6.55;100.00
72465;BME280;60471;52.150;4.508;2024-03-25T06:25:24;100428.19;;;6.55;100.00
72465;BME280;60471;52.150;4.508;2024-03-25T06:27:50;100428.47;;;6.48;100.00
72465;BME280;60471;52.150;4.508;2024-03-25T06:30:16;100427.66;;;6.46;100.00
72465;BME280;60471;52.150;4.508;2024-03-25T06:33:01;100429.94;;;6.55;100.00
72465;BME280;60471;52.150;4.508;2024-03-25T06:35:46;100427.06;;;6.61;100.00
72465;BME280;60471;52.150;4.508;2024-03-25T06:38:12;100423.13;;;6.73;100.00
72465;BME280;60471;52.150;4.508;2024-03-25T06:40:38;100432.72;;;6.74;100.00
72465;BME280;60471;52.150;4.508;2024-03-25T06:43:04;100436.66;;;6.85;100.00
72465;BME280;60471;52.150;4.508;2024-03-25T06:45:31;100427.09;;;6.83;100.00
72465;BME280;60471;52.150;4.508;2024-03-25T06:47:57;100430.63;;;6.82;100.00
72465;BME280;60471;52.150;4.508;2024-03-25T06:50:24;100425.09;;;6.89;100.00
72465;BME280;60471;52.150;4.508;2024-03-25T06:52:50;100437.94;;;6.97;100.00
72465;BME280;60471;52.150;4.508;2024-03-25T06:55:17;100432.31;;;7.06;100.00
72465;BME280;60471;52.150;4.508;2024-03-25T06:57:48;100432.78;;;7.16;100.00
72465;BME280;60471;52.150;4.508;2024-03-25T07:00:15;100432.19;;;7.09;100.00
72465;BME280;60471;52.150;4.508;2024-03-25T07:02:41;100440.22;;;7.05;100.00
72465;BME280;60471;52.150;4.508;2024-03-25T07:05:08;100439.38;;;7.04;100.00
72465;BME280;60471;52.150;4.508;2024-03-25T07:07:34;100436.09;;;7.21;100.00
72465;BME280;60471;52.150;4.508;2024-03-25T07:10:01;100437.34;;;7.33;100.00
72465;BME280;60471;52.150;4.508;2024-03-25T07:12:27;100435.94;;;7.46;100.00
72465;BME280;60471;52.150;4.508;2024-03-25T07:14:54;100440.03;;;7.53;100.00
72465;BME280;60471;52.150;4.508;2024-03-25T07:17:21;100434.50;;;7.59;100.00
72465;BME280;60471;52.150;4.508;2024-03-25T07:19:49;100437.41;;;7.73;100.00
72465;BME280;60471;52.150;4.508;2024-03-25T07:22:16;100429.94;;;7.84;100.00
72465;BME280;60471;52.150;4.508;2024-03-25T07:24:43;100432.34;;;7.89;100.00
72465;BME280;60471;52.150;4.508;2024-03-25T07:27:09;100433.97;;;8.12;100.00
72465;BME280;60471;52.150;4.508;2024-03-25T07:29:35;100435.63;;;8.14;100.00
72465;BME280;60471;52.150;4.508;2024-03-25T07:32:02;100437.09;;;8.20;100.00
72465;BME280;60471;52.150;4.508;2024-03-25T07:34:28;100443.53;;;8.33;100.00
72465;BME280;60471;52.150;4.508;2024-03-25T07:36:55;100440.25;;;8.49;100.00
72465;BME280;60471;52.150;4.508;2024-03-25T07:39:21;100443.09;;;8.63;100.00
72465;BME280;60471;52.150;4.508;2024-03-25T07:41:50;100439.84;;;8.58;100.00
72465;BME280;60471;52.150;4.508;2024-03-25T07:44:16;100443.44;;;8.74;100.00
72465;BME280;60471;52.150;4.508;2024-03-25T07:46:42;100442.66;;;8.72;100.00
72465;BME280;60471;52.150;4.508;2024-03-25T07:49:09;100445.28;;;8.91;100.00
72465;BME280;60471;52.150;4.508;2024-03-25T07:51:35;100435.97;;;9.03;100.00
72465;BME280;60471;52.150;4.508;2024-03-25T07:54:02;100441.66;;;9.29;100.00
72465;BME280;60471;52.150;4.508;2024-03-25T07:56:31;100435.97;;;9.56;100.00
72465;BME280;60471;52.150;4.508;2024-03-25T07:59:03;100443.00;;;9.38;100.00
72465;BME280;60471;52.150;4.508;2024-03-25T08:01:29;100453.28;;;9.25;100.00
72465;BME280;60471;52.150;4.508;2024-03-25T08:03:56;100455.75;;;9.28;100.00
72465;BME280;60471;52.150;4.508;2024-03-25T08:06:22;100457.88;;;9.39;100.00
72465;BME280;60471;52.150;4.508;2024-03-25T08:08:48;100458.34;;;9.47;100.00
72465;BME280;60471;52.150;4.508;2024-03-25T08:11:14;100452.78;;;9.17;100.00
72465;BME280;60471;52.150;4.508;2024-03-25T08:13:41;100452.53;;;9.05;100.00
72465;BME280;60471;52.150;4.508;2024-03-25T08:16:07;100458.78;;;9.38;100.00
72465;BME280;60471;52.150;4.508;2024-03-25T08:18:33;100453.53;;;9.38;100.00
72465;BME280;60471;52.150;4.508;2024-03-25T08:21:00;100454.47;;;9.37;100.00
72465;BME280;60471;52.150;4.508;2024-03-25T08:23:26;100456.03;;;9.22;100.00
72465;BME280;60471;52.150;4.508;2024-03-25T08:25:52;100459.25;;;9.29;100.00
72465;BME280;60471;52.150;4.508;2024-03-25T08:28:18;100454.91;;;9.28;100.00
72465;BME280;60471;52.150;4.508;2024-03-25T08:30:44;100448.78;;;9.27;100.00
72465;BME280;60471;52.150;4.508;2024-03-25T08:33:11;100457.66;;;9.61;100.00
72465;BME280;60471;52.150;4.508;2024-03-25T08:35:37;100443.34;;;9.67;100.00
72465;BME280;60471;52.150;4.508;2024-03-25T08:38:04;100442.63;;;9.46;100.00
72465;BME280;60471;52.150;4.508;2024-03-25T08:40:30;100442.16;;;9.38;100.00
72465;BME280;60471;52.150;4.508;2024-03-25T08:42:56;100445.88;;;9.51;100.00
72465;BME280;60471;52.150;4.508;2024-03-25T08:45:23;100442.09;;;9.56;100.00
72465;BME280;60471;52.150;4.508;2024-03-25T08:47:49;100441.78;;;9.80;100.00
72465;BME280;60471;52.150;4.508;2024-03-25T08:50:16;100433.56;;;9.69;100.00
72465;BME280;60471;52.150;4.508;2024-03-25T08:52:42;100434.25;;;9.90;100.00
72465;BME280;60471;52.150;4.508;2024-03-25T08:55:08;100433.31;;;9.91;100.00
72465;BME280;60471;52.150;4.508;2024-03-25T08:57:35;100436.28;;;10.17;100.00
72465;BME280;60471;52.150;4.508;2024-03-25T09:00:01;100430.72;;;10.06;100.00
72465;BME280;60471;52.150;4.508;2024-03-25T09:02:29;100422.31;;;10.00;100.00
72465;BME280;60471;52.150;4.508;2024-03-25T09:04:56;100425.50;;;9.89;100.00
72465;BME280;60471;52.150;4.508;2024-03-25T09:07:22;100411.69;;;10.01;100.00
72465;BME280;60471;52.150;4.508;2024-03-25T09:09:48;100409.13;;;10.00;100.00
72465;BME280;60471;52.150;4.508;2024-03-25T09:12:33;100415.34;;;9.99;100.00
72465;BME280;60471;52.150;4.508;2024-03-25T09:14:59;100411.16;;;10.28;100.00
72465;BME280;60471;52.150;4.508;2024-03-25T09:17:25;100408.59;;;10.43;100.00
72465;BME280;60471;52.150;4.508;2024-03-25T09:19:53;100408.91;;;10.85;100.00
72465;BME280;60471;52.150;4.508;2024-03-25T09:22:20;100399.66;;;10.78;100.00
72465;BME280;60471;52.150;4.508;2024-03-25T09:24:46;100395.47;;;10.89;100.00
72465;BME280;60471;52.150;4.508;2024-03-25T09:27:12;100391.78;;;11.23;100.00
72465;BME280;60471;52.150;4.508;2024-03-25T09:29:40;100398.13;;;11.65;100.00
72465;BME280;60471;52.150;4.508;2024-03-25T09:32:06;100394.59;;;11.20;100.00
72465;BME280;60471;52.150;4.508;2024-03-25T09:34:33;100388.91;;;10.81;100.00
72465;BME280;60471;52.150;4.508;2024-03-25T09:36:59;100383.66;;;11.26;100.00
72465;BME280;60471;52.150;4.508;2024-03-25T09:39:25;100379.13;;;11.58;100.00
72465;BME280;60471;52.150;4.508;2024-03-25T09:41:55;100373.94;;;12.30;100.00
72465;BME280;60471;52.150;4.508;2024-03-25T09:44:24;100371.19;;;12.31;100.00
72465;BME280;60471;52.150;4.508;2024-03-25T09:46:51;100370.97;;;12.63;100.00
72465;BME280;60471;52.150;4.508;2024-03-25T09:49:18;100370.25;;;12.18;100.00
72465;BME280;60471;52.150;4.508;2024-03-25T09:51:46;100369.53;;;12.71;100.00
72465;BME280;60471;52.150;4.508;2024-03-25T09:54:13;100368.56;;;12.31;100.00
72465;BME280;60471;52.150;4.508;2024-03-25T09:56:40;100355.47;;;13.25;100.00
72465;BME280;60471;52.150;4.508;2024-03-25T09:59:07;100355.84;;;13.71;100.00
72465;BME280;60471;52.150;4.508;2024-03-25T10:01:34;100363.69;;;13.60;100.00
72465;BME280;60471;52.150;4.508;2024-03-25T10:04:00;100356.91;;;13.69;100.00
72465;BME280;60471;52.150;4.508;2024-03-25T10:06:27;100356.13;;;13.41;100.00
72465;BME280;60471;52.150;4.508;2024-03-25T10:08:54;100361.97;;;13.46;100.00
72465;BME280;60471;52.150;4.508;2024-03-25T10:11:23;100351.25;;;13.99;100.00
72465;BME280;60471;52.150;4.508;2024-03-25T10:13:49;100356.38;;;15.00;100.00
72465;BME280;60471;52.150;4.508;2024-03-25T10:16:15;100354.97;;;15.19;100.00
72465;BME280;60471;52.150;4.508;2024-03-25T10:18:42;100344.41;;;15.06;100.00
72465;BME280;60471;52.150;4.508;2024-03-25T10:21:10;100348.28;;;15.72;98.02
72465;BME280;60471;52.150;4.508;2024-03-25T10:23:40;100353.66;;;16.39;83.53
72465;BME280;60471;52.150;4.508;2024-03-25T10:26:08;100345.50;;;16.74;76.33
72465;BME280;60471;52.150;4.508;2024-03-25T10:28:34;100342.63;;;17.30;74.65
72465;BME280;60471;52.150;4.508;2024-03-25T10:31:03;100342.91;;;17.69;69.67
72465;BME280;60471;52.150;4.508;2024-03-25T10:33:31;100339.81;;;18.15;63.08
72465;BME280;60471;52.150;4.508;2024-03-25T10:35:59;100331.69;;;18.27;61.13
72465;BME280;60471;52.150;4.508;2024-03-25T10:38:29;100340.88;;;16.65;64.95
72465;BME280;60471;52.150;4.508;2024-03-25T10:40:57;100328.34;;;16.34;75.94
72465;BME280;60471;52.150;4.508;2024-03-25T10:43:27;100323.84;;;16.68;71.70
72465;BME280;60471;52.150;4.508;2024-03-25T10:45:57;100325.72;;;17.41;66.27
72465;BME280;60471;52.150;4.508;2024-03-25T10:48:28;100318.16;;;18.18;62.46
72465;BME280;60471;52.150;4.508;2024-03-25T10:50:58;100321.06;;;18.36;61.20
72465;BME280;60471;52.150;4.508;2024-03-25T10:53:27;100310.25;;;18.07;61.06
72465;BME280;60471;52.150;4.508;2024-03-25T10:55:55;100309.34;;;19.06;55.60
72465;BME280;60471;52.150;4.508;2024-03-25T10:58:23;100301.94;;;20.23;50.28
72465;BME280;60471;52.150;4.508;2024-03-25T11:00:52;100304.69;;;19.37;53.80
72465;BME280;60471;52.150;4.508;2024-03-25T11:03:23;100304.28;;;21.17;48.97
72465;BME280;60471;52.150;4.508;2024-03-25T11:05:50;100303.81;;;21.21;46.62
72465;BME280;60471;52.150;4.508;2024-03-25T11:08:17;100296.34;;;19.69;47.29
72465;BME280;60471;52.150;4.508;2024-03-25T11:10:45;100292.13;;;20.04;46.40
72465;BME280;60471;52.150;4.508;2024-03-25T11:13:14;100293.44;;;20.00;45.89
72465;BME280;60471;52.150;4.508;2024-03-25T11:15:45;100290.78;;;20.18;46.05
72465;BME280;60471;52.150;4.508;2024-03-25T11:18:13;100294.66;;;20.06;44.48
72465;BME280;60471;52.150;4.508;2024-03-25T11:20:40;100289.00;;;18.55;46.69
72465;BME280;60471;52.150;4.508;2024-03-25T11:23:11;100268.72;;;20.06;44.37
72465;BME280;60471;52.150;4.508;2024-03-25T11:25:41;100278.47;;;19.51;38.91
72465;BME280;60471;52.150;4.508;2024-03-25T11:28:11;100265.88;;;18.95;40.50
72465;BME280;60471;52.150;4.508;2024-03-25T11:30:37;100256.00;;;20.81;39.77
72465;BME280;60471;52.150;4.508;2024-03-25T11:33:07;100257.41;;;19.85;38.59
72465;BME280;60471;52.150;4.508;2024-03-25T11:35:37;100243.78;;;19.12;37.03
72465;BME280;60471;52.150;4.508;2024-03-25T11:38:04;100253.09;;;18.89;35.63
72465;BME280;60471;52.150;4.508;2024-03-25T11:40:30;100240.03;;;19.98;35.75
72465;BME280;60471;52.150;4.508;2024-03-25T11:42:58;100239.56;;;21.97;35.23
72465;BME280;60471;52.150;4.508;2024-03-25T11:45:24;100236.13;;;22.88;34.83
72465;BME280;60471;52.150;4.508;2024-03-25T11:47:51;100223.91;;;22.35;36.31
72465;BME280;60471;52.150;4.508;2024-03-25T11:50:19;100228.97;;;21.36;35.78
72465;BME280;60471;52.150;4.508;2024-03-25T11:52:46;100224.34;;;21.02;39.10
72465;BME280;60471;52.150;4.508;2024-03-25T11:55:18;100222.84;;;22.12;37.20
72465;BME280;60471;52.150;4.508;2024-03-25T11:57:45;100225.25;;;21.11;39.30
72465;BME280;60471;52.150;4.508;2024-03-25T12:00:11;100232.22;;;21.48;39.93
72465;BME280;60471;52.150;4.508;2024-03-25T12:02:44;100222.78;;;21.69;38.12
72465;BME280;60471;52.150;4.508;2024-03-25T12:05:11;100225.41;;;24.23;36.19
72465;BME280;60471;52.150;4.508;2024-03-25T12:07:38;100220.13;;;25.44;34.02
72465;BME280;60471;52.150;4.508;2024-03-25T12:10:04;100220.00;;;25.23;32.95
72465;BME280;60471;52.150;4.508;2024-03-25T12:12:50;100211.25;;;27.03;29.29
72465;BME280;60471;52.150;4.508;2024-03-25T12:15:19;100199.00;;;28.92;26.99
72465;BME280;60471;52.150;4.508;2024-03-25T12:17:46;100203.00;;;23.84;31.15
72465;BME280;60471;52.150;4.508;2024-03-25T12:20:13;100199.78;;;23.08;32.84
72465;BME280;60471;52.150;4.508;2024-03-25T12:22:40;100195.78;;;23.04;32.18
72465;BME280;60471;52.150;4.508;2024-03-25T12:25:07;100215.84;;;21.85;33.39
72465;BME280;60471;52.150;4.508;2024-03-25T12:27:37;100195.41;;;21.14;35.53
72465;BME280;60471;52.150;4.508;2024-03-25T12:30:07;100199.00;;;21.49;35.23
72465;BME280;60471;52.150;4.508;2024-03-25T12:32:44;100193.84;;;22.32;34.00
72465;BME280;60471;52.150;4.508;2024-03-25T12:35:14;100197.41;;;23.22;33.32
72465;BME280;60471;52.150;4.508;2024-03-25T12:37:47;100195.47;;;21.22;35.49
72465;BME280;60471;52.150;4.508;2024-03-25T12:40:25;100186.31;;;20.45;37.21
72465;BME280;60471;52.150;4.508;2024-03-25T12:42:53;100176.59;;;21.58;35.81
72465;BME280;60471;52.150;4.508;2024-03-25T12:45:20;100172.84;;;22.27;35.05
72465;BME280;60471;52.150;4.508;2024-03-25T12:47:50;100180.00;;;21.68;35.41
72465;BME280;60471;52.150;4.508;2024-03-25T12:50:17;100171.97;;;21.42;36.20